createdAt,value
2023-03-08T00:02:23.353Z,1.55
2023-03-08T00:04:50.923Z,1.33
2023-03-08T00:07:18.423Z,1.33
2023-03-08T00:09:47.335Z,0.93
2023-03-08T00:12:14.938Z,1.33
2023-03-08T00:14:42.727Z,1.60
2023-03-08T00:17:10.264Z,1.35
2023-03-08T00:19:37.880Z,1.70
2023-03-08T00:22:05.552Z,1.35
2023-03-08T00:24:33.062Z,1.48
2023-03-08T00:27:02.002Z,1.42
2023-03-08T00:29:29.559Z,1.25
2023-03-08T00:31:57.048Z,1.50
2023-03-08T00:34:24.594Z,1.48
2023-03-08T00:36:52.082Z,1.67
2023-03-08T00:39:19.649Z,1.20
2023-03-08T00:41:47.241Z,1.75
2023-03-08T00:44:16.105Z,1.20
2023-03-08T00:46:43.613Z,1.60
2023-03-08T00:49:11.766Z,1.33
2023-03-08T00:51:39.388Z,2.00
2023-03-08T00:54:07.001Z,1.70
2023-03-08T00:56:34.486Z,2.08
2023-03-08T00:59:01.998Z,1.88
2023-03-08T01:01:30.847Z,1.85
2023-03-08T01:03:59.212Z,1.60
2023-03-08T01:06:26.746Z,2.03
2023-03-08T01:08:54.293Z,2.15
2023-03-08T01:11:22.863Z,2.15
2023-03-08T01:13:50.821Z,2.10
2023-03-08T01:16:19.809Z,2.33
2023-03-08T01:18:48.741Z,2.17
2023-03-08T01:21:16.692Z,1.95
2023-03-08T01:23:44.311Z,2.17
2023-03-08T01:26:13.021Z,2.08
2023-03-08T01:28:40.526Z,2.50
2023-03-08T01:31:08.989Z,2.78
2023-03-08T01:33:36.558Z,2.83
2023-03-08T01:36:05.834Z,2.40
2023-03-08T01:38:33.505Z,2.13
2023-03-08T01:41:01.457Z,3.05
2023-03-08T01:43:30.036Z,3.45
2023-03-08T01:46:04.721Z,2.63
2023-03-08T01:48:33.380Z,2.15
2023-03-08T01:51:02.080Z,2.95
2023-03-08T01:53:31.140Z,2.60
2023-03-08T01:55:58.962Z,3.33
2023-03-08T01:58:26.784Z,3.00
2023-03-08T02:00:54.532Z,3.97
2023-03-08T02:03:21.997Z,2.42
2023-03-08T02:05:51.229Z,3.25
2023-03-08T02:08:18.736Z,2.47
2023-03-08T02:10:47.651Z,3.83
2023-03-08T02:13:15.120Z,4.07
2023-03-08T02:15:42.628Z,3.17
2023-03-08T02:18:10.132Z,3.75
2023-03-08T02:20:38.803Z,3.72
2023-03-08T02:23:12.165Z,3.78
2023-03-08T02:25:40.054Z,3.45
2023-03-08T02:28:07.553Z,4.47
2023-03-08T02:30:36.661Z,3.35
2023-03-08T02:33:04.232Z,4.20
2023-03-08T02:35:31.907Z,4.22
2023-03-08T02:37:59.460Z,4.03
2023-03-08T02:40:28.306Z,4.05
2023-03-08T02:42:56.511Z,4.90
2023-03-08T02:45:24.156Z,4.95
2023-03-08T02:47:51.714Z,4.45
2023-03-08T02:50:19.234Z,4.85
2023-03-08T02:52:46.780Z,4.93
2023-03-08T02:55:14.320Z,4.32
2023-03-08T02:57:43.233Z,3.58
2023-03-08T03:00:12.446Z,4.47
2023-03-08T03:02:39.968Z,4.63
2023-03-08T03:05:08.491Z,5.07
2023-03-08T03:07:36.356Z,4.75
2023-03-08T03:10:03.844Z,4.30
2023-03-08T03:12:31.542Z,4.22
2023-03-08T03:15:01.879Z,4.43
2023-03-08T03:17:29.468Z,5.05
2023-03-08T03:19:56.914Z,5.18
2023-03-08T03:22:24.437Z,5.28
2023-03-08T03:24:52.338Z,5.60
2023-03-08T03:27:19.880Z,5.53
2023-03-08T03:29:47.416Z,6.22
2023-03-08T03:32:16.373Z,6.07
2023-03-08T03:34:43.942Z,6.22
2023-03-08T03:37:11.483Z,6.18
2023-03-08T03:39:39.395Z,5.65
2023-03-08T03:42:07.204Z,7.03
2023-03-08T03:44:34.679Z,6.47
2023-03-08T03:47:02.168Z,6.82
2023-03-08T03:49:31.225Z,6.43
2023-03-08T03:51:58.712Z,7.13
2023-03-08T03:54:26.548Z,6.22
2023-03-08T03:56:57.987Z,6.25
2023-03-08T03:59:26.849Z,6.50
2023-03-08T04:01:54.674Z,6.10
2023-03-08T04:04:22.215Z,5.97
2023-03-08T04:06:51.070Z,6.32
2023-03-08T04:09:19.728Z,6.35
2023-03-08T04:11:47.253Z,4.60
2023-03-08T04:14:15.053Z,4.88
2023-03-08T04:16:42.620Z,4.80
2023-03-08T04:19:12.248Z,6.00
2023-03-08T04:21:40.131Z,4.55
2023-03-08T04:24:09.421Z,5.18
2023-03-08T04:26:37.817Z,5.38
2023-03-08T04:29:06.196Z,5.50
2023-03-08T04:31:34.868Z,5.15
2023-03-08T04:34:02.641Z,5.43
2023-03-08T04:36:30.157Z,4.85
2023-03-08T04:38:57.662Z,5.75
2023-03-08T04:41:26.747Z,5.72
2023-03-08T04:43:54.835Z,4.93
2023-03-08T04:46:23.977Z,6.03
2023-03-08T04:48:53.970Z,4.38
2023-03-08T04:51:21.902Z,4.75
2023-03-08T04:53:49.433Z,5.20
2023-03-08T04:56:17.513Z,4.78
2023-03-08T04:58:46.509Z,4.55
2023-03-08T05:01:14.678Z,4.53
2023-03-08T05:03:42.554Z,4.55
2023-03-08T05:06:10.425Z,4.78
2023-03-08T05:08:38.155Z,4.60
2023-03-08T05:11:06.024Z,4.97
2023-03-08T05:13:34.251Z,4.55
2023-03-08T05:16:03.627Z,5.00
2023-03-08T05:18:31.252Z,5.15
2023-03-08T05:20:59.821Z,5.00
2023-03-08T05:23:28.673Z,5.07
2023-03-08T05:25:57.287Z,4.00
2023-03-08T05:28:25.866Z,4.70
2023-03-08T05:31:00.966Z,4.65
2023-03-08T05:33:29.860Z,4.72
2023-03-08T05:35:57.413Z,4.82
2023-03-08T05:38:25.258Z,4.95
2023-03-08T05:40:52.863Z,4.90
2023-03-08T05:43:20.607Z,5.45
2023-03-08T05:45:55.179Z,4.95
2023-03-08T05:48:22.733Z,4.75
2023-03-08T05:50:51.590Z,5.78
2023-03-08T05:53:19.321Z,5.45
2023-03-08T05:55:46.808Z,5.50
2023-03-08T05:58:14.374Z,5.70
2023-03-08T06:00:41.878Z,5.60
2023-03-08T06:03:09.431Z,5.85
2023-03-08T06:05:37.090Z,5.45
2023-03-08T06:08:06.254Z,5.40
2023-03-08T06:10:33.752Z,5.57
2023-03-08T06:13:01.452Z,6.30
2023-03-08T06:15:28.946Z,5.15
2023-03-08T06:17:56.411Z,5.85
2023-03-08T06:20:23.903Z,6.30
2023-03-08T06:22:51.384Z,6.15
2023-03-08T06:25:20.968Z,6.15
2023-03-08T06:27:48.675Z,6.20
2023-03-08T06:30:16.261Z,5.80
2023-03-08T06:32:43.998Z,5.90
2023-03-08T06:35:11.577Z,6.47
2023-03-08T06:37:39.129Z,8.18
2023-03-08T06:40:09.122Z,7.63
2023-03-08T06:42:41.439Z,6.55
2023-03-08T06:45:10.258Z,6.38
2023-03-08T06:47:37.814Z,5.60
2023-03-08T06:50:05.599Z,6.00
2023-03-08T06:52:37.578Z,6.15
2023-03-08T06:55:05.230Z,5.75
2023-03-08T06:57:32.929Z,6.63
2023-03-08T07:00:01.892Z,6.07
2023-03-08T07:02:29.408Z,6.97
2023-03-08T07:04:56.914Z,6.45
2023-03-08T07:07:24.416Z,6.75
2023-03-08T07:09:51.939Z,6.15
2023-03-08T07:12:19.451Z,5.93
2023-03-08T07:14:46.993Z,6.65
2023-03-08T07:17:15.829Z,6.25
2023-03-08T07:19:43.321Z,6.05
2023-03-08T07:22:12.790Z,6.80
2023-03-08T07:24:40.423Z,6.07
2023-03-08T07:27:07.915Z,6.22
2023-03-08T07:29:35.434Z,6.20
2023-03-08T07:32:03.197Z,6.68
2023-03-08T07:34:32.077Z,6.32
2023-03-08T07:36:59.684Z,7.05
2023-03-08T07:39:27.204Z,6.32
2023-03-08T07:41:54.727Z,5.53
2023-03-08T07:44:22.406Z,5.35
2023-03-08T07:46:49.920Z,6.00
2023-03-08T07:49:17.470Z,6.53
2023-03-08T07:51:46.341Z,7.10
2023-03-08T07:54:13.860Z,6.20
2023-03-08T07:56:41.521Z,5.85
2023-03-08T07:59:09.158Z,5.63
2023-03-08T08:01:36.668Z,6.05
2023-03-08T08:04:04.673Z,7.20
2023-03-08T08:06:32.245Z,6.60
2023-03-08T08:09:01.119Z,6.32
2023-03-08T08:11:29.008Z,6.13
2023-03-08T08:13:56.545Z,6.80
2023-03-08T08:16:24.114Z,6.10
2023-03-08T08:18:52.764Z,5.95
2023-03-08T08:21:20.395Z,5.60
2023-03-08T08:23:48.319Z,5.68
2023-03-08T08:26:18.429Z,5.07
2023-03-08T08:28:46.508Z,5.45
2023-03-08T08:31:15.315Z,5.00
2023-03-08T08:33:43.732Z,4.97
2023-03-08T08:36:13.078Z,4.88
2023-03-08T08:38:40.626Z,5.22
2023-03-08T08:41:08.950Z,4.32
2023-03-08T08:43:38.179Z,4.70
2023-03-08T08:46:06.410Z,4.88
2023-03-08T08:48:34.851Z,4.50
2023-03-08T08:51:02.346Z,4.40
2023-03-08T08:53:29.904Z,4.72
2023-03-08T08:55:57.514Z,4.68
2023-03-08T08:58:25.549Z,4.25
2023-03-08T09:00:54.386Z,4.32
2023-03-08T09:03:21.954Z,4.43
2023-03-08T09:05:49.543Z,4.05
2023-03-08T09:08:17.217Z,3.95
2023-03-08T09:10:44.830Z,4.05
2023-03-08T09:13:13.607Z,4.15
2023-03-08T09:15:41.202Z,4.20
2023-03-08T09:18:10.141Z,4.32
2023-03-08T09:20:37.612Z,4.35
2023-03-08T09:23:05.188Z,4.28
2023-03-08T09:25:32.672Z,4.60
2023-03-08T09:28:00.280Z,3.58
2023-03-08T09:30:29.150Z,3.88
2023-03-08T09:32:57.117Z,3.97
2023-03-08T09:35:26.082Z,3.42
2023-03-08T09:37:55.571Z,3.63
2023-03-08T09:40:24.966Z,3.35
2023-03-08T09:42:52.836Z,3.08
2023-03-08T09:45:23.270Z,3.42
2023-03-08T09:47:53.525Z,3.90
2023-03-08T09:50:26.368Z,3.22
2023-03-08T09:53:00.133Z,3.45
2023-03-08T09:55:30.366Z,3.00
2023-03-08T09:57:58.877Z,3.13
2023-03-08T10:00:29.787Z,2.72
2023-03-08T10:03:04.811Z,3.13
2023-03-08T10:05:37.236Z,2.80
2023-03-08T10:08:08.788Z,2.60
2023-03-08T10:10:42.285Z,2.90
2023-03-08T10:13:20.113Z,2.67
2023-03-08T10:15:50.957Z,2.53
2023-03-08T10:18:20.852Z,2.60
2023-03-08T10:20:49.184Z,2.75
2023-03-08T10:23:19.051Z,2.40
2023-03-08T10:25:47.372Z,2.53
2023-03-08T10:28:16.154Z,3.40
2023-03-08T10:30:45.640Z,3.25
2023-03-08T10:33:14.593Z,2.45
2023-03-08T10:35:53.871Z,2.67
2023-03-08T10:38:22.872Z,2.30
2023-03-08T10:40:50.660Z,2.25
2023-03-08T10:43:20.848Z,2.47
2023-03-08T10:45:57.930Z,3.05
2023-03-08T10:48:25.573Z,2.40
2023-03-08T10:50:59.332Z,2.63
2023-03-08T10:53:29.934Z,3.10
2023-03-08T10:55:58.438Z,2.92
2023-03-08T10:58:31.775Z,2.50
2023-03-08T11:01:00.280Z,2.33
2023-03-08T11:03:28.233Z,2.58
2023-03-08T11:05:56.961Z,5.05
2023-03-08T11:08:25.836Z,5.60
2023-03-08T11:11:05.300Z,4.07
2023-03-08T11:13:35.063Z,2.55
2023-03-08T11:16:24.422Z,3.92
2023-03-08T11:18:57.723Z,3.28
2023-03-08T11:21:27.848Z,2.17
2023-03-08T11:23:57.776Z,2.15
2023-03-08T11:26:31.520Z,2.40
2023-03-08T11:29:16.998Z,2.20
2023-03-08T11:31:50.654Z,3.80
2023-03-08T11:34:31.745Z,2.30
2023-03-08T11:37:03.648Z,2.45
2023-03-08T11:39:33.400Z,2.38
2023-03-08T11:42:05.055Z,2.55
2023-03-08T11:44:37.778Z,2.55
2023-03-08T11:47:17.024Z,2.10
2023-03-08T11:49:52.091Z,2.20
2023-03-08T11:52:26.381Z,2.10
2023-03-08T11:55:01.391Z,2.92
2023-03-08T11:57:34.405Z,2.05
2023-03-08T12:00:11.835Z,2.15
2023-03-08T12:02:41.085Z,2.15
2023-03-08T12:05:10.667Z,2.25
2023-03-08T12:07:39.422Z,3.47
2023-03-08T12:10:15.752Z,2.83
2023-03-08T12:12:45.988Z,2.28
2023-03-08T12:15:23.280Z,2.08
2023-03-08T12:17:53.712Z,2.10
2023-03-08T12:20:22.298Z,2.38
2023-03-08T12:22:53.437Z,2.40
2023-03-08T12:27:51.546Z,2.42
2023-03-08T12:30:23.134Z,2.17
2023-03-08T12:32:51.024Z,2.47
2023-03-08T12:35:29.171Z,2.13
2023-03-08T12:37:57.376Z,2.35
2023-03-08T12:40:30.326Z,2.17
2023-03-08T12:43:06.660Z,1.92
2023-03-08T12:45:34.341Z,1.95
2023-03-08T12:48:08.953Z,2.20
2023-03-08T12:50:39.921Z,2.08
2023-03-08T12:53:15.960Z,2.28
2023-03-08T12:55:44.416Z,2.08
2023-03-08T12:58:18.300Z,2.58
2023-03-08T13:00:45.973Z,2.30
2023-03-08T13:03:27.365Z,2.50
2023-03-08T13:05:56.564Z,2.50
2023-03-08T13:08:30.606Z,2.38
2023-03-08T13:11:03.956Z,2.30
2023-03-08T13:13:39.683Z,2.67
2023-03-08T13:16:22.255Z,2.30
2023-03-08T13:18:52.289Z,2.42
2023-03-08T13:21:27.031Z,2.42
2023-03-08T13:23:57.495Z,2.50
2023-03-08T13:26:47.623Z,2.65
2023-03-08T13:29:19.967Z,2.33
2023-03-08T13:31:47.836Z,2.30
2023-03-08T13:34:24.221Z,2.67
2023-03-08T13:36:51.751Z,2.20
2023-03-08T13:39:20.084Z,2.47
2023-03-08T13:41:48.446Z,3.88
2023-03-08T13:44:16.608Z,3.13
2023-03-08T13:46:46.155Z,2.72
2023-03-08T13:49:14.866Z,2.83
2023-03-08T13:51:43.355Z,2.47
2023-03-08T13:54:15.316Z,2.90
2023-03-08T13:56:42.888Z,3.50
2023-03-08T13:59:17.528Z,3.15
2023-03-08T14:01:49.638Z,3.88
2023-03-08T14:04:19.410Z,3.63
2023-03-08T14:06:50.887Z,3.50
2023-03-08T14:09:19.179Z,3.55
2023-03-08T14:11:47.329Z,4.00
2023-03-08T14:14:18.210Z,4.15
2023-03-08T14:16:46.114Z,3.53
2023-03-08T14:19:24.970Z,3.78
2023-03-08T14:21:53.850Z,3.38
2023-03-08T14:24:23.035Z,3.13
2023-03-08T14:27:00.251Z,3.42
2023-03-08T14:29:28.530Z,3.83
2023-03-08T14:32:00.803Z,3.03
2023-03-08T14:34:33.761Z,3.50
2023-03-08T14:37:03.575Z,3.58
2023-03-08T14:39:31.919Z,3.70
2023-03-08T14:41:59.672Z,3.45
2023-03-08T14:44:28.887Z,3.60
2023-03-08T14:46:59.259Z,3.88
2023-03-08T14:49:28.446Z,3.78
2023-03-08T14:51:57.451Z,4.18
2023-03-08T14:54:31.283Z,3.67
2023-03-08T14:56:58.964Z,4.10
2023-03-08T14:59:28.314Z,4.18
2023-03-08T15:01:56.098Z,4.03
2023-03-08T15:04:24.781Z,4.30
2023-03-08T15:06:54.308Z,3.55
2023-03-08T15:09:23.730Z,3.83
2023-03-08T15:11:53.379Z,4.13
2023-03-08T15:14:20.922Z,3.70
2023-03-08T15:16:48.471Z,4.70
2023-03-08T15:19:16.159Z,3.45
2023-03-08T15:21:43.724Z,3.55
2023-03-08T15:24:14.897Z,3.78
2023-03-08T15:26:44.218Z,3.65
2023-03-08T15:29:20.040Z,3.63
2023-03-08T15:31:47.549Z,3.80
2023-03-08T15:34:15.094Z,4.00
2023-03-08T15:36:42.576Z,3.85
2023-03-08T15:39:10.983Z,4.07
2023-03-08T15:41:38.526Z,3.72
2023-03-08T15:44:07.706Z,3.65
2023-03-08T15:46:35.298Z,3.95
2023-03-08T15:49:03.069Z,3.67
2023-03-08T15:51:31.479Z,3.85
2023-03-08T15:53:59.210Z,3.58
2023-03-08T15:56:26.774Z,3.90
2023-03-08T15:58:54.912Z,3.95
2023-03-08T16:01:25.210Z,3.53
2023-03-08T16:03:53.078Z,3.45
2023-03-08T16:06:20.908Z,3.38
2023-03-08T16:08:48.445Z,3.10
2023-03-08T16:11:16.969Z,3.30
2023-03-08T16:13:44.499Z,3.50
2023-03-08T16:16:12.111Z,4.03
2023-03-08T16:18:41.405Z,3.97
2023-03-08T16:21:09.591Z,3.50
2023-03-08T16:23:37.137Z,3.88
2023-03-08T16:26:15.319Z,3.80
2023-03-08T16:28:44.622Z,4.05
2023-03-08T16:31:12.494Z,3.85
2023-03-08T16:33:41.487Z,4.00
2023-03-08T16:36:09.015Z,3.78
2023-03-08T16:38:36.589Z,3.85
2023-03-08T16:41:13.531Z,3.75
2023-03-08T16:43:46.879Z,3.80
2023-03-08T16:46:29.245Z,3.17
2023-03-08T16:48:59.110Z,3.45
2023-03-08T16:51:27.435Z,3.42
2023-03-08T16:53:55.607Z,3.45
2023-03-08T16:56:23.953Z,3.13
2023-03-08T16:58:51.579Z,3.30
2023-03-08T17:01:20.087Z,4.20
2023-03-08T17:03:47.828Z,3.90
2023-03-08T17:06:17.978Z,3.92
2023-03-08T17:08:45.734Z,3.38
2023-03-08T17:11:16.693Z,3.85
2023-03-08T17:13:44.555Z,4.00
2023-03-08T17:16:12.601Z,3.50
2023-03-08T17:18:40.119Z,3.42
2023-03-08T17:21:07.851Z,3.90
2023-03-08T17:23:36.711Z,3.63
2023-03-08T17:26:04.682Z,3.47
2023-03-08T17:28:32.197Z,3.10
2023-03-08T17:30:59.949Z,3.47
2023-03-08T17:33:27.826Z,3.78
2023-03-08T17:35:56.017Z,3.95
2023-03-08T17:38:23.574Z,3.78
2023-03-08T17:40:52.407Z,4.00
2023-03-08T17:43:19.996Z,4.70
2023-03-08T17:45:56.925Z,3.58
2023-03-08T17:48:24.451Z,3.55
2023-03-08T17:50:52.170Z,3.33
2023-03-08T17:53:19.749Z,3.35
2023-03-08T17:55:47.209Z,4.15
2023-03-08T17:58:16.128Z,3.78
2023-03-08T18:00:43.630Z,4.00
2023-03-08T18:03:11.110Z,3.50
2023-03-08T18:05:38.624Z,3.75
2023-03-08T18:08:06.185Z,3.85
2023-03-08T18:10:33.636Z,3.78
2023-03-08T18:13:01.128Z,4.32
2023-03-08T18:15:30.057Z,3.72
2023-03-08T18:17:57.600Z,4.07
2023-03-08T18:20:26.115Z,3.63
2023-03-08T18:22:53.919Z,3.50
2023-03-08T18:25:22.811Z,3.67
2023-03-08T18:27:50.266Z,3.03
2023-03-08T18:30:17.881Z,2.95
2023-03-08T18:32:49.577Z,3.15
2023-03-08T18:35:17.214Z,3.60
2023-03-08T18:37:44.723Z,3.58
2023-03-08T18:40:12.712Z,2.78
2023-03-08T18:42:40.273Z,2.75
2023-03-08T18:45:09.619Z,3.30
2023-03-08T18:47:37.655Z,3.42
2023-03-08T18:50:07.598Z,3.30
2023-03-08T18:52:35.166Z,3.97
2023-03-08T18:55:02.875Z,3.40
2023-03-08T18:57:30.435Z,3.33
2023-03-08T18:59:57.923Z,3.28
2023-03-08T19:02:28.272Z,3.22
2023-03-08T19:04:56.128Z,2.47
2023-03-08T19:07:25.082Z,2.67
2023-03-08T19:09:54.540Z,2.42
2023-03-08T19:12:22.067Z,2.65
2023-03-08T19:14:50.519Z,2.75
2023-03-08T19:17:18.057Z,2.50
2023-03-08T19:19:45.496Z,2.08
2023-03-08T19:22:12.989Z,2.50
2023-03-08T19:24:41.800Z,2.35
2023-03-08T19:27:09.307Z,3.17
2023-03-08T19:29:36.850Z,2.72
2023-03-08T19:32:05.243Z,2.70
2023-03-08T19:34:33.820Z,2.33
2023-03-08T19:37:01.967Z,2.25
2023-03-08T19:39:30.314Z,3.10
2023-03-08T19:42:00.137Z,3.13
2023-03-08T19:44:28.015Z,3.15
2023-03-08T19:46:55.788Z,3.33
2023-03-08T19:49:24.181Z,3.38
2023-03-08T19:51:52.514Z,3.53
2023-03-08T19:54:20.296Z,3.30
2023-03-08T19:56:47.885Z,3.67
2023-03-08T19:59:16.948Z,4.10
2023-03-08T20:01:44.728Z,4.05
2023-03-08T20:04:12.863Z,4.03
2023-03-08T20:06:41.252Z,4.00
2023-03-08T20:09:10.167Z,4.22
2023-03-08T20:11:37.958Z,4.63
2023-03-08T20:14:05.581Z,4.30
2023-03-08T20:16:34.480Z,4.65
2023-03-08T20:19:02.068Z,4.40
2023-03-08T20:21:31.485Z,4.45
2023-03-08T20:23:59.721Z,4.50
2023-03-08T20:26:28.151Z,4.75
2023-03-08T20:28:56.182Z,4.03
2023-03-08T20:31:24.146Z,4.38
2023-03-08T20:33:53.218Z,4.32
2023-03-08T20:36:20.821Z,4.63
2023-03-08T20:38:48.749Z,4.72
2023-03-08T20:41:17.031Z,4.93
2023-03-08T20:43:45.257Z,5.38
2023-03-08T20:46:13.657Z,5.43
2023-03-08T20:48:42.452Z,4.47
2023-03-08T20:51:12.013Z,4.70
2023-03-08T20:53:40.169Z,5.20
2023-03-08T20:56:08.160Z,4.88
2023-03-08T20:58:35.780Z,5.35
2023-03-08T21:01:09.649Z,4.72
2023-03-08T21:03:37.206Z,4.25
2023-03-08T21:06:04.835Z,4.65
2023-03-08T21:08:33.455Z,5.00
2023-03-08T21:11:02.338Z,5.22
2023-03-08T21:13:29.840Z,5.20
2023-03-08T21:16:00.809Z,5.57
2023-03-08T21:18:28.264Z,5.88
2023-03-08T21:20:55.789Z,6.80
2023-03-08T21:23:23.920Z,7.03
2023-03-08T21:25:51.661Z,8.02
2023-03-08T21:28:22.458Z,8.20
2023-03-08T21:30:49.980Z,6.65
2023-03-08T21:33:17.498Z,6.47
2023-03-08T21:35:45.060Z,6.53
2023-03-08T21:38:12.625Z,5.90
2023-03-08T21:40:41.212Z,6.28
2023-03-08T21:43:08.678Z,5.75
2023-03-08T21:45:40.959Z,5.53
2023-03-08T21:48:08.864Z,6.22
2023-03-08T21:50:38.717Z,5.88
2023-03-08T21:53:06.307Z,5.72
2023-03-08T21:55:33.812Z,5.85
2023-03-08T21:58:01.397Z,6.28
2023-03-08T22:00:29.008Z,5.80
2023-03-08T22:02:57.879Z,5.72
2023-03-08T22:05:25.505Z,5.75
2023-03-08T22:07:53.022Z,5.88
2023-03-08T22:10:20.560Z,4.93
2023-03-08T22:12:48.524Z,5.80
2023-03-08T22:15:16.592Z,5.72
2023-03-08T22:17:44.073Z,5.22
2023-03-08T22:20:13.470Z,5.18
2023-03-08T22:22:41.302Z,5.00
2023-03-08T22:25:09.388Z,5.82
2023-03-08T22:27:36.933Z,5.78
2023-03-08T22:30:08.127Z,5.60
2023-03-08T22:32:36.179Z,7.20
2023-03-08T22:35:03.870Z,6.75
2023-03-08T22:37:32.840Z,6.75
2023-03-08T22:40:00.539Z,6.28
2023-03-08T22:42:28.162Z,6.60
2023-03-08T22:44:55.632Z,5.95
2023-03-08T22:47:23.098Z,5.63
2023-03-08T22:49:51.017Z,5.65
2023-03-08T22:52:18.540Z,5.93
2023-03-08T22:54:47.415Z,5.53
2023-03-08T22:57:16.326Z,5.72
2023-03-08T22:59:45.172Z,5.95
2023-03-08T23:02:12.960Z,6.07
2023-03-08T23:04:40.566Z,5.82
2023-03-08T23:07:08.116Z,6.07
2023-03-08T23:09:35.689Z,5.57
2023-03-08T23:12:06.027Z,6.28
2023-03-08T23:14:33.647Z,6.43
2023-03-08T23:17:01.200Z,5.97
2023-03-08T23:19:28.784Z,5.43
2023-03-08T23:21:57.624Z,7.00
2023-03-08T23:24:25.151Z,5.88
2023-03-08T23:26:54.154Z,6.20
2023-03-08T23:29:23.058Z,6.45
2023-03-08T23:31:50.607Z,5.28
2023-03-08T23:34:18.080Z,6.03
2023-03-08T23:36:45.598Z,6.43
2023-03-08T23:39:13.079Z,6.78
2023-03-08T23:41:41.734Z,6.57
2023-03-08T23:44:09.188Z,6.20
2023-03-08T23:46:38.080Z,6.47
2023-03-08T23:49:05.740Z,6.32
2023-03-08T23:51:33.856Z,6.90
2023-03-08T23:54:02.160Z,6.70
2023-03-08T23:56:37.389Z,6.82
2023-03-08T23:59:05.612Z,7.05
